sensor_id;sensor_type;location;lat;lon;timestamp;pressure;altitude;pressure_sealevel;temperature;humidity
70302;BME280;57706;56.326;43.882;2023-06-19T00:00:21;100872.41;;;11.20;56.44
70302;BME280;57706;56.326;43.882;2023-06-19T00:02:47;100872.41;;;11.20;56.25
70302;BME280;57706;56.326;43.882;2023-06-19T00:05:13;100871.75;;;11.18;56.25
70302;BME280;57706;56.326;43.882;2023-06-19T00:07:40;100879.78;;;11.17;56.24
70302;BME280;57706;56.326;43.882;2023-06-19T00:10:06;100877.31;;;11.15;56.23
70302;BME280;57706;56.326;43.882;2023-06-19T00:12:33;100880.91;;;11.14;56.43
70302;BME280;57706;56.326;43.882;2023-06-19T00:14:59;100879.28;;;11.13;56.28
70302;BME280;57706;56.326;43.882;2023-06-19T00:17:25;100876.25;;;11.08;56.45
70302;BME280;57706;56.326;43.882;2023-06-19T00:19:54;100882.16;;;11.01;56.60
70302;BME280;57706;56.326;43.882;2023-06-19T00:22:20;100870.59;;;10.94;56.80
70302;BME280;57706;56.326;43.882;2023-06-19T00:24:46;100879.22;;;10.86;57.12
70302;BME280;57706;56.326;43.882;2023-06-19T00:27:12;100874.09;;;10.77;57.36
70302;BME280;57706;56.326;43.882;2023-06-19T00:29:38;100877.97;;;10.72;57.56
70302;BME280;57706;56.326;43.882;2023-06-19T00:32:05;100872.50;;;10.66;57.81
70302;BME280;57706;56.326;43.882;2023-06-19T00:34:31;100877.25;;;10.62;58.00
70302;BME280;57706;56.326;43.882;2023-06-19T00:36:58;100878.50;;;10.58;58.41
70302;BME280;57706;56.326;43.882;2023-06-19T00:39:25;100874.41;;;10.55;58.36
70302;BME280;57706;56.326;43.882;2023-06-19T00:41:52;100873.75;;;10.62;58.38
70302;BME280;57706;56.326;43.882;2023-06-19T00:44:18;100876.63;;;10.68;58.10
70302;BME280;57706;56.326;43.882;2023-06-19T00:46:45;100876.72;;;10.77;57.93
70302;BME280;57706;56.326;43.882;2023-06-19T00:49:12;100874.59;;;10.80;58.19
70302;BME280;57706;56.326;43.882;2023-06-19T00:51:39;100877.75;;;10.84;58.05
70302;BME280;57706;56.326;43.882;2023-06-19T00:54:05;100875.28;;;10.82;58.04
70302;BME280;57706;56.326;43.882;2023-06-19T00:56:32;100877.38;;;10.79;58.09
70302;BME280;57706;56.326;43.882;2023-06-19T00:59:00;100877.69;;;10.76;57.94
70302;BME280;57706;56.326;43.882;2023-06-19T01:01:27;100875.06;;;10.76;57.72
70302;BME280;57706;56.326;43.882;2023-06-19T01:03:53;100874.38;;;10.73;57.85
70302;BME280;57706;56.326;43.882;2023-06-19T01:06:26;100878.28;;;10.69;57.91
70302;BME280;57706;56.326;43.882;2023-06-19T01:09:05;100871.97;;;10.62;57.99
70302;BME280;57706;56.326;43.882;2023-06-19T01:11:41;100880.31;;;10.57;58.27
70302;BME280;57706;56.326;43.882;2023-06-19T01:14:14;100875.50;;;10.53;58.35
70302;BME280;57706;56.326;43.882;2023-06-19T01:16:41;100882.03;;;10.49;58.38
70302;BME280;57706;56.326;43.882;2023-06-19T01:19:10;100879.72;;;10.45;58.27
70302;BME280;57706;56.326;43.882;2023-06-19T01:21:37;100881.56;;;10.35;59.32
70302;BME280;57706;56.326;43.882;2023-06-19T01:24:03;100874.94;;;10.31;58.99
70302;BME280;57706;56.326;43.882;2023-06-19T01:26:31;100876.22;;;10.27;59.69
70302;BME280;57706;56.326;43.882;2023-06-19T01:28:57;100878.31;;;10.23;60.10
70302;BME280;57706;56.326;43.882;2023-06-19T01:34:10;100881.63;;;10.25;59.70
70302;BME280;57706;56.326;43.882;2023-06-19T01:36:38;100881.47;;;10.27;59.84
70302;BME280;57706;56.326;43.882;2023-06-19T01:39:05;100876.88;;;10.29;59.66
70302;BME280;57706;56.326;43.882;2023-06-19T01:41:32;100879.91;;;10.34;59.41
70302;BME280;57706;56.326;43.882;2023-06-19T01:43:59;100878.63;;;10.38;59.81
70302;BME280;57706;56.326;43.882;2023-06-19T01:46:25;100879.78;;;10.54;59.09
70302;BME280;57706;56.326;43.882;2023-06-19T01:48:51;100883.53;;;10.69;58.66
70302;BME280;57706;56.326;43.882;2023-06-19T01:51:17;100886.97;;;10.88;58.17
70302;BME280;57706;56.326;43.882;2023-06-19T01:53:43;100888.09;;;11.04;57.71
70302;BME280;57706;56.326;43.882;2023-06-19T01:56:09;100890.84;;;11.20;57.08
70302;BME280;57706;56.326;43.882;2023-06-19T01:58:35;100882.38;;;11.35;56.73
70302;BME280;57706;56.326;43.882;2023-06-19T02:01:01;100889.66;;;11.49;56.20
70302;BME280;57706;56.326;43.882;2023-06-19T02:03:27;100889.75;;;11.66;56.06
70302;BME280;57706;56.326;43.882;2023-06-19T02:05:52;100893.44;;;11.81;55.38
70302;BME280;57706;56.326;43.882;2023-06-19T02:08:19;100888.75;;;12.02;54.80
70302;BME280;57706;56.326;43.882;2023-06-19T02:10:45;100895.25;;;12.24;54.09
70302;BME280;57706;56.326;43.882;2023-06-19T02:13:11;100894.66;;;12.47;54.09
70302;BME280;57706;56.326;43.882;2023-06-19T02:15:37;100898.66;;;12.68;53.54
70302;BME280;57706;56.326;43.882;2023-06-19T02:18:04;100904.25;;;12.89;52.56
70302;BME280;57706;56.326;43.882;2023-06-19T02:20:31;100901.44;;;13.07;52.05
70302;BME280;57706;56.326;43.882;2023-06-19T02:22:57;100899.28;;;13.19;51.47
70302;BME280;57706;56.326;43.882;2023-06-19T02:25:23;100911.81;;;13.34;51.11
70302;BME280;57706;56.326;43.882;2023-06-19T02:27:49;100906.81;;;13.39;51.46
70302;BME280;57706;56.326;43.882;2023-06-19T02:30:15;100906.81;;;13.56;51.01
70302;BME280;57706;56.326;43.882;2023-06-19T02:32:42;100902.69;;;13.61;50.95
70302;BME280;57706;56.326;43.882;2023-06-19T02:35:09;100895.75;;;13.52;50.75
70302;BME280;57706;56.326;43.882;2023-06-19T02:37:36;100910.81;;;13.35;49.92
70302;BME280;57706;56.326;43.882;2023-06-19T02:40:04;100899.28;;;13.28;49.87
70302;BME280;57706;56.326;43.882;2023-06-19T02:42:32;100908.19;;;13.18;49.49
70302;BME280;57706;56.326;43.882;2023-06-19T02:45:01;100898.63;;;13.09;49.69
70302;BME280;57706;56.326;43.882;2023-06-19T02:47:38;100897.00;;;13.00;49.78
70302;BME280;57706;56.326;43.882;2023-06-19T02:50:05;100898.31;;;13.04;49.79
70302;BME280;57706;56.326;43.882;2023-06-19T02:52:31;100898.94;;;13.14;49.44
70302;BME280;57706;56.326;43.882;2023-06-19T02:54:59;100897.13;;;13.23;49.35
70302;BME280;57706;56.326;43.882;2023-06-19T02:57:25;100897.78;;;13.25;49.45
70302;BME280;57706;56.326;43.882;2023-06-19T02:59:51;100895.25;;;13.40;48.89
70302;BME280;57706;56.326;43.882;2023-06-19T03:02:18;100895.25;;;13.57;48.22
70302;BME280;57706;56.326;43.882;2023-06-19T03:04:44;100893.28;;;13.59;48.05
70302;BME280;57706;56.326;43.882;2023-06-19T03:07:10;100897.56;;;13.60;48.29
70302;BME280;57706;56.326;43.882;2023-06-19T03:09:38;100901.84;;;13.69;48.51
70302;BME280;57706;56.326;43.882;2023-06-19T03:12:04;100891.59;;;13.74;48.02
70302;BME280;57706;56.326;43.882;2023-06-19T03:14:30;100898.16;;;13.79;48.08
70302;BME280;57706;56.326;43.882;2023-06-19T03:16:57;100889.56;;;13.85;48.00
70302;BME280;57706;56.326;43.882;2023-06-19T03:19:23;100884.28;;;13.85;48.08
70302;BME280;57706;56.326;43.882;2023-06-19T03:21:49;100894.56;;;13.71;48.40
70302;BME280;57706;56.326;43.882;2023-06-19T03:24:15;100889.06;;;13.81;48.05
70302;BME280;57706;56.326;43.882;2023-06-19T03:26:42;100892.25;;;13.68;48.51
70302;BME280;57706;56.326;43.882;2023-06-19T03:29:07;100896.19;;;13.72;48.43
70302;BME280;57706;56.326;43.882;2023-06-19T03:31:52;100891.56;;;13.83;48.34
70302;BME280;57706;56.326;43.882;2023-06-19T03:34:20;100885.78;;;13.79;48.24
70302;BME280;57706;56.326;43.882;2023-06-19T03:36:47;100889.03;;;13.89;48.12
70302;BME280;57706;56.326;43.882;2023-06-19T03:39:13;100890.53;;;13.92;48.28
70302;BME280;57706;56.326;43.882;2023-06-19T03:41:40;100889.03;;;13.89;48.21
70302;BME280;57706;56.326;43.882;2023-06-19T03:44:07;100885.78;;;14.11;47.80
70302;BME280;57706;56.326;43.882;2023-06-19T03:46:33;100885.38;;;14.22;47.75
70302;BME280;57706;56.326;43.882;2023-06-19T03:48:59;100882.63;;;14.15;47.59
70302;BME280;57706;56.326;43.882;2023-06-19T03:51:28;100888.66;;;14.01;47.97
70302;BME280;57706;56.326;43.882;2023-06-19T03:53:55;100882.31;;;14.10;47.45
70302;BME280;57706;56.326;43.882;2023-06-19T03:56:20;100886.78;;;14.10;46.58
70302;BME280;57706;56.326;43.882;2023-06-19T03:58:46;100888.47;;;14.34;46.70
70302;BME280;57706;56.326;43.882;2023-06-19T04:01:12;100884.94;;;14.42;46.60
70302;BME280;57706;56.326;43.882;2023-06-19T04:03:38;100886.13;;;14.63;46.46
70302;BME280;57706;56.326;43.882;2023-06-19T04:06:04;100889.53;;;14.95;45.20
70302;BME280;57706;56.326;43.882;2023-06-19T04:08:31;100882.28;;;15.27;44.50
70302;BME280;57706;56.326;43.882;2023-06-19T04:10:57;100886.66;;;15.65;43.84
70302;BME280;57706;56.326;43.882;2023-06-19T04:13:22;100885.09;;;16.01;42.68
70302;BME280;57706;56.326;43.882;2023-06-19T04:15:50;100877.47;;;16.34;41.26
70302;BME280;57706;56.326;43.882;2023-06-19T04:18:16;100883.34;;;16.51;40.78
70302;BME280;57706;56.326;43.882;2023-06-19T04:20:42;100879.44;;;16.69;40.79
70302;BME280;57706;56.326;43.882;2023-06-19T04:23:11;100881.19;;;16.84;40.61
70302;BME280;57706;56.326;43.882;2023-06-19T04:25:38;100882.97;;;16.76;40.52
70302;BME280;57706;56.326;43.882;2023-06-19T04:28:04;100888.41;;;16.68;40.31
70302;BME280;57706;56.326;43.882;2023-06-19T04:30:30;100879.28;;;16.56;40.58
70302;BME280;57706;56.326;43.882;2023-06-19T04:32:57;100868.31;;;16.37;40.47
70302;BME280;57706;56.326;43.882;2023-06-19T04:35:23;100867.19;;;16.24;40.26
70302;BME280;57706;56.326;43.882;2023-06-19T04:37:49;100868.81;;;16.26;39.86
70302;BME280;57706;56.326;43.882;2023-06-19T04:40:15;100864.72;;;16.23;39.69
70302;BME280;57706;56.326;43.882;2023-06-19T04:42:41;100874.13;;;16.26;39.79
70302;BME280;57706;56.326;43.882;2023-06-19T04:45:07;100864.00;;;16.14;39.91
70302;BME280;57706;56.326;43.882;2023-06-19T04:47:35;100861.00;;;16.17;39.87
70302;BME280;57706;56.326;43.882;2023-06-19T04:50:01;100853.94;;;16.24;38.92
70302;BME280;57706;56.326;43.882;2023-06-19T04:52:31;100859.47;;;16.30;39.16
70302;BME280;57706;56.326;43.882;2023-06-19T04:54:59;100858.34;;;16.39;39.79
70302;BME280;57706;56.326;43.882;2023-06-19T04:57:24;100852.34;;;16.52;39.99
70302;BME280;57706;56.326;43.882;2023-06-19T04:59:50;100857.44;;;16.54;39.71
70302;BME280;57706;56.326;43.882;2023-06-19T05:02:16;100850.38;;;16.61;37.06
70302;BME280;57706;56.326;43.882;2023-06-19T05:04:42;100849.34;;;16.62;37.63
70302;BME280;57706;56.326;43.882;2023-06-19T05:07:09;100845.06;;;16.61;38.74
70302;BME280;57706;56.326;43.882;2023-06-19T05:09:36;100846.19;;;16.73;38.68
70302;BME280;57706;56.326;43.882;2023-06-19T05:12:02;100852.34;;;16.81;37.55
70302;BME280;57706;56.326;43.882;2023-06-19T05:14:28;100840.81;;;16.95;37.70
70302;BME280;57706;56.326;43.882;2023-06-19T05:16:54;100844.63;;;17.08;37.46
70302;BME280;57706;56.326;43.882;2023-06-19T05:19:20;100854.72;;;16.97;38.68
70302;BME280;57706;56.326;43.882;2023-06-19T05:21:46;100838.91;;;17.11;37.71
70302;BME280;57706;56.326;43.882;2023-06-19T05:24:11;100853.75;;;17.33;37.09
70302;BME280;57706;56.326;43.882;2023-06-19T05:26:37;100844.00;;;17.41;37.00
70302;BME280;57706;56.326;43.882;2023-06-19T05:29:03;100842.19;;;17.48;36.59
70302;BME280;57706;56.326;43.882;2023-06-19T05:31:29;100840.31;;;17.42;36.73
70302;BME280;57706;56.326;43.882;2023-06-19T05:33:55;100844.09;;;17.61;37.30
70302;BME280;57706;56.326;43.882;2023-06-19T05:36:21;100842.91;;;17.77;36.21
70302;BME280;57706;56.326;43.882;2023-06-19T05:38:47;100836.19;;;17.81;35.62
70302;BME280;57706;56.326;43.882;2023-06-19T05:41:13;100842.31;;;17.88;35.35
70302;BME280;57706;56.326;43.882;2023-06-19T05:43:39;100829.25;;;17.94;34.39
70302;BME280;57706;56.326;43.882;2023-06-19T05:46:05;100840.13;;;17.99;34.03
70302;BME280;57706;56.326;43.882;2023-06-19T05:48:31;100827.09;;;18.11;33.76
70302;BME280;57706;56.326;43.882;2023-06-19T05:50:57;100828.75;;;18.46;33.00
70302;BME280;57706;56.326;43.882;2023-06-19T05:53:23;100829.94;;;19.17;32.07
70302;BME280;57706;56.326;43.882;2023-06-19T05:55:49;100832.72;;;21.53;28.30
70302;BME280;57706;56.326;43.882;2023-06-19T05:58:15;100827.72;;;25.87;23.27
70302;BME280;57706;56.326;43.882;2023-06-19T06:00:41;100816.56;;;28.91;19.31
70302;BME280;57706;56.326;43.882;2023-06-19T06:03:07;100823.31;;;30.83;17.59
70302;BME280;57706;56.326;43.882;2023-06-19T06:05:32;100818.88;;;32.82;15.81
70302;BME280;57706;56.326;43.882;2023-06-19T06:07:59;100819.66;;;34.16;14.62
70302;BME280;57706;56.326;43.882;2023-06-19T06:10:25;100810.09;;;34.28;14.45
70302;BME280;57706;56.326;43.882;2023-06-19T06:12:51;100808.97;;;31.21;16.12
70302;BME280;57706;56.326;43.882;2023-06-19T06:15:17;100810.72;;;28.00;19.22
70302;BME280;57706;56.326;43.882;2023-06-19T06:17:43;100815.31;;;25.59;22.48
70302;BME280;57706;56.326;43.882;2023-06-19T06:20:09;100802.50;;;24.59;23.55
70302;BME280;57706;56.326;43.882;2023-06-19T06:22:40;100811.59;;;23.61;24.98
70302;BME280;57706;56.326;43.882;2023-06-19T06:25:07;100806.06;;;22.86;25.57
70302;BME280;57706;56.326;43.882;2023-06-19T06:27:34;100801.25;;;22.28;25.93
70302;BME280;57706;56.326;43.882;2023-06-19T06:30:00;100795.50;;;22.00;26.42
70302;BME280;57706;56.326;43.882;2023-06-19T06:32:32;100793.16;;;21.92;27.04
70302;BME280;57706;56.326;43.882;2023-06-19T06:34:59;100798.72;;;23.46;25.45
70302;BME280;57706;56.326;43.882;2023-06-19T06:37:25;100795.34;;;29.19;19.27
70302;BME280;57706;56.326;43.882;2023-06-19T06:39:51;100781.41;;;33.53;14.90
70302;BME280;57706;56.326;43.882;2023-06-19T06:42:18;100783.16;;;36.08;12.98
70302;BME280;57706;56.326;43.882;2023-06-19T06:44:44;100782.69;;;37.85;11.33
70302;BME280;57706;56.326;43.882;2023-06-19T06:47:11;100783.47;;;38.57;10.70
70302;BME280;57706;56.326;43.882;2023-06-19T06:49:37;100772.38;;;40.44;9.60
70302;BME280;57706;56.326;43.882;2023-06-19T06:52:04;100761.31;;;41.82;8.48
70302;BME280;57706;56.326;43.882;2023-06-19T06:54:30;100768.28;;;42.22;8.40
70302;BME280;57706;56.326;43.882;2023-06-19T06:56:56;100754.16;;;43.65;7.97
70302;BME280;57706;56.326;43.882;2023-06-19T06:59:24;100751.56;;;44.42;7.44
70302;BME280;57706;56.326;43.882;2023-06-19T07:01:51;100744.16;;;44.68;7.33
70302;BME280;57706;56.326;43.882;2023-06-19T07:04:17;100730.41;;;44.97;6.79
70302;BME280;57706;56.326;43.882;2023-06-19T07:06:42;100739.72;;;44.53;7.46
70302;BME280;57706;56.326;43.882;2023-06-19T07:09:09;100725.56;;;46.58;6.87
70302;BME280;57706;56.326;43.882;2023-06-19T07:14:20;100722.50;;;46.16;6.44
70302;BME280;57706;56.326;43.882;2023-06-19T07:16:46;100721.88;;;46.83;5.91
70302;BME280;57706;56.326;43.882;2023-06-19T07:19:11;100717.50;;;47.84;5.68
70302;BME280;57706;56.326;43.882;2023-06-19T07:21:38;100714.88;;;49.01;5.16
70302;BME280;57706;56.326;43.882;2023-06-19T07:24:04;100708.56;;;48.04;5.37
70302;BME280;57706;56.326;43.882;2023-06-19T07:26:31;100709.44;;;47.93;5.00
70302;BME280;57706;56.326;43.882;2023-06-19T07:28:57;100709.69;;;46.58;6.15
70302;BME280;57706;56.326;43.882;2023-06-19T07:31:23;100706.41;;;48.54;5.04
70302;BME280;57706;56.326;43.882;2023-06-19T07:33:49;100698.13;;;49.01;4.68
70302;BME280;57706;56.326;43.882;2023-06-19T07:36:14;100704.75;;;48.56;5.00
70302;BME280;57706;56.326;43.882;2023-06-19T07:38:42;100701.25;;;46.73;6.07
70302;BME280;57706;56.326;43.882;2023-06-19T07:41:09;100705.63;;;46.74;5.75
70302;BME280;57706;56.326;43.882;2023-06-19T07:43:37;100702.72;;;47.49;5.42
70302;BME280;57706;56.326;43.882;2023-06-19T07:46:03;100698.44;;;47.40;5.53
70302;BME280;57706;56.326;43.882;2023-06-19T07:48:29;100697.81;;;49.23;4.68
70302;BME280;57706;56.326;43.882;2023-06-19T07:50:55;100698.38;;;50.23;4.45
70302;BME280;57706;56.326;43.882;2023-06-19T07:53:21;100694.88;;;50.55;4.51
70302;BME280;57706;56.326;43.882;2023-06-19T07:55:47;100691.56;;;50.24;4.36
70302;BME280;57706;56.326;43.882;2023-06-19T07:58:13;100691.72;;;50.17;4.17
70302;BME280;57706;56.326;43.882;2023-06-19T08:00:39;100689.00;;;50.33;4.48
70302;BME280;57706;56.326;43.882;2023-06-19T08:03:05;100698.59;;;49.92;4.45
70302;BME280;57706;56.326;43.882;2023-06-19T08:05:31;100691.56;;;50.24;4.40
70302;BME280;57706;56.326;43.882;2023-06-19T08:07:58;100688.47;;;46.86;5.61
70302;BME280;57706;56.326;43.882;2023-06-19T08:10:25;100692.81;;;50.03;4.07
70302;BME280;57706;56.326;43.882;2023-06-19T08:12:51;100689.78;;;51.37;4.07
70302;BME280;57706;56.326;43.882;2023-06-19T08:15:18;100687.84;;;51.80;3.17
70302;BME280;57706;56.326;43.882;2023-06-19T08:17:44;100679.47;;;51.93;3.61
70302;BME280;57706;56.326;43.882;2023-06-19T08:20:10;100675.09;;;52.61;3.86
70302;BME280;57706;56.326;43.882;2023-06-19T08:22:37;100666.72;;;44.12;6.83
70302;BME280;57706;56.326;43.882;2023-06-19T08:25:04;100666.44;;;48.64;4.72
70302;BME280;57706;56.326;43.882;2023-06-19T08:27:30;100663.78;;;49.76;4.52
70302;BME280;57706;56.326;43.882;2023-06-19T08:29:57;100660.34;;;51.62;3.23
70302;BME280;57706;56.326;43.882;2023-06-19T08:32:22;100664.22;;;51.35;3.74
70302;BME280;57706;56.326;43.882;2023-06-19T08:34:48;100656.00;;;52.29;3.71
70302;BME280;57706;56.326;43.882;2023-06-19T08:37:14;100659.34;;;51.69;3.75
70302;BME280;57706;56.326;43.882;2023-06-19T08:39:40;100664.59;;;51.96;3.20
70302;BME280;57706;56.326;43.882;2023-06-19T08:42:07;100643.94;;;53.07;2.86
70302;BME280;57706;56.326;43.882;2023-06-19T08:44:35;100648.47;;;52.91;3.09
70302;BME280;57706;56.326;43.882;2023-06-19T08:47:02;100649.09;;;54.70;2.28
70302;BME280;57706;56.326;43.882;2023-06-19T08:49:33;100636.63;;;48.88;4.71
70302;BME280;57706;56.326;43.882;2023-06-19T08:52:00;100634.69;;;42.99;7.30
70302;BME280;57706;56.326;43.882;2023-06-19T08:54:26;100637.13;;;39.58;9.18
70302;BME280;57706;56.326;43.882;2023-06-19T08:56:52;100655.84;;;37.51;10.00
70302;BME280;57706;56.326;43.882;2023-06-19T08:59:20;100636.78;;;44.22;6.61
70302;BME280;57706;56.326;43.882;2023-06-19T09:01:51;100645.41;;;49.35;4.56
70302;BME280;57706;56.326;43.882;2023-06-19T09:04:22;100637.28;;;50.25;4.23
70302;BME280;57706;56.326;43.882;2023-06-19T09:06:51;100634.19;;;51.22;3.75
70302;BME280;57706;56.326;43.882;2023-06-19T09:09:19;100632.72;;;47.92;5.10
70302;BME280;57706;56.326;43.882;2023-06-19T09:12:04;100621.72;;;49.67;4.43
70302;BME280;57706;56.326;43.882;2023-06-19T09:14:37;100621.75;;;49.19;4.50
70302;BME280;57706;56.326;43.882;2023-06-19T09:17:06;100617.69;;;47.86;5.21
70302;BME280;57706;56.326;43.882;2023-06-19T09:19:35;100617.00;;;47.36;5.45
70302;BME280;57706;56.326;43.882;2023-06-19T09:22:06;100623.59;;;40.01;8.95
70302;BME280;57706;56.326;43.882;2023-06-19T09:27:18;100623.69;;;41.03;8.64
70302;BME280;57706;56.326;43.882;2023-06-19T09:29:46;100619.38;;;46.17;6.10
70302;BME280;57706;56.326;43.882;2023-06-19T09:32:21;100598.91;;;49.04;4.66
70302;BME280;57706;56.326;43.882;2023-06-19T09:34:50;100595.59;;;50.67;3.88
70302;BME280;57706;56.326;43.882;2023-06-19T09:37:24;100600.94;;;51.84;3.89
70302;BME280;57706;56.326;43.882;2023-06-19T09:39:55;100591.47;;;52.94;3.51
70302;BME280;57706;56.326;43.882;2023-06-19T09:42:34;100588.91;;;52.74;3.66
70302;BME280;57706;56.326;43.882;2023-06-19T09:45:04;100590.44;;;52.53;3.57
70302;BME280;57706;56.326;43.882;2023-06-19T09:47:45;100591.66;;;53.35;3.15
70302;BME280;57706;56.326;43.882;2023-06-19T09:50:13;100577.03;;;54.45;3.02
70302;BME280;57706;56.326;43.882;2023-06-19T09:52:41;100576.50;;;53.55;3.07
70302;BME280;57706;56.326;43.882;2023-06-19T09:55:09;100578.06;;;54.19;2.78
70302;BME280;57706;56.326;43.882;2023-06-19T09:57:40;100590.84;;;51.14;3.37
70302;BME280;57706;56.326;43.882;2023-06-19T10:00:08;100585.53;;;52.44;3.44
70302;BME280;57706;56.326;43.882;2023-06-19T10:02:42;100577.94;;;51.04;3.77
70302;BME280;57706;56.326;43.882;2023-06-19T10:05:09;100574.47;;;49.76;4.43
70302;BME280;57706;56.326;43.882;2023-06-19T10:07:38;100579.78;;;51.40;3.64
70302;BME280;57706;56.326;43.882;2023-06-19T10:10:12;100576.56;;;52.10;3.11
70302;BME280;57706;56.326;43.882;2023-06-19T10:12:47;100558.25;;;52.57;3.46
70302;BME280;57706;56.326;43.882;2023-06-19T10:15:27;100558.75;;;50.73;3.95
70302;BME280;57706;56.326;43.882;2023-06-19T10:18:04;100571.28;;;52.25;3.48
70302;BME280;57706;56.326;43.882;2023-06-19T10:20:37;100547.38;;;52.34;2.82
70302;BME280;57706;56.326;43.882;2023-06-19T10:23:12;100541.09;;;52.91;3.08
70302;BME280;57706;56.326;43.882;2023-06-19T10:25:46;100542.34;;;53.34;3.11
70302;BME280;57706;56.326;43.882;2023-06-19T10:28:28;100539.03;;;52.69;2.86
70302;BME280;57706;56.326;43.882;2023-06-19T10:31:00;100547.78;;;52.71;3.48
70302;BME280;57706;56.326;43.882;2023-06-19T10:33:29;100538.06;;;52.63;2.80
70302;BME280;57706;56.326;43.882;2023-06-19T10:35:57;100540.72;;;53.24;3.23
70302;BME280;57706;56.326;43.882;2023-06-19T10:38:25;100535.09;;;53.69;2.78
70302;BME280;57706;56.326;43.882;2023-06-19T10:40:52;100532.59;;;49.76;4.65
70302;BME280;57706;56.326;43.882;2023-06-19T10:43:22;100523.56;;;45.84;5.79
70302;BME280;57706;56.326;43.882;2023-06-19T10:45:51;100531.09;;;50.91;3.87
70302;BME280;57706;56.326;43.882;2023-06-19T10:48:22;100526.66;;;53.15;2.74
70302;BME280;57706;56.326;43.882;2023-06-19T10:50:49;100524.34;;;50.43;4.46
70302;BME280;57706;56.326;43.882;2023-06-19T10:53:31;100534.31;;;47.40;5.67
70302;BME280;57706;56.326;43.882;2023-06-19T10:55:58;100528.97;;;51.12;4.09
70302;BME280;57706;56.326;43.882;2023-06-19T10:58:25;100521.72;;;53.19;3.33
70302;BME280;57706;56.326;43.882;2023-06-19T11:00:51;100517.16;;;49.31;4.89
70302;BME280;57706;56.326;43.882;2023-06-19T11:03:19;100524.53;;;44.79;7.05
70302;BME280;57706;56.326;43.882;2023-06-19T11:05:45;100516.94;;;45.48;6.77
70302;BME280;57706;56.326;43.882;2023-06-19T11:08:23;100524.91;;;46.28;6.21
70302;BME280;57706;56.326;43.882;2023-06-19T11:10:50;100511.06;;;44.99;6.62
70302;BME280;57706;56.326;43.882;2023-06-19T11:13:18;100516.16;;;42.45;8.17
70302;BME280;57706;56.326;43.882;2023-06-19T11:15:45;100517.25;;;45.72;6.60
70302;BME280;57706;56.326;43.882;2023-06-19T11:18:11;100512.06;;;48.82;5.27
70302;BME280;57706;56.326;43.882;2023-06-19T11:20:50;100513.03;;;46.28;6.55
70302;BME280;57706;56.326;43.882;2023-06-19T11:23:25;100512.25;;;44.58;7.24
70302;BME280;57706;56.326;43.882;2023-06-19T11:25:52;100502.38;;;48.15;5.54
70302;BME280;57706;56.326;43.882;2023-06-19T11:28:18;100490.59;;;46.57;6.34
70302;BME280;57706;56.326;43.882;2023-06-19T11:30:48;100483.47;;;47.40;5.93
70302;BME280;57706;56.326;43.882;2023-06-19T11:33:19;100491.13;;;43.92;7.69
70302;BME280;57706;56.326;43.882;2023-06-19T11:35:49;100493.53;;;38.96;10.61
70302;BME280;57706;56.326;43.882;2023-06-19T11:38:26;100487.69;;;42.37;8.95
70302;BME280;57706;56.326;43.882;2023-06-19T11:40:54;100483.09;;;41.50;8.96
70302;BME280;57706;56.326;43.882;2023-06-19T11:43:27;100477.47;;;39.47;10.44
70302;BME280;57706;56.326;43.882;2023-06-19T11:45:54;100477.78;;;45.17;7.59
70302;BME280;57706;56.326;43.882;2023-06-19T11:48:25;100470.66;;;48.08;5.82
70302;BME280;57706;56.326;43.882;2023-06-19T11:50:53;100465.06;;;49.65;5.24
70302;BME280;57706;56.326;43.882;2023-06-19T11:53:20;100464.59;;;47.86;5.67
70302;BME280;57706;56.326;43.882;2023-06-19T11:55:47;100464.41;;;48.76;5.52
70302;BME280;57706;56.326;43.882;2023-06-19T11:58:13;100455.63;;;48.30;5.52
70302;BME280;57706;56.326;43.882;2023-06-19T12:00:42;100463.13;;;49.25;5.26
70302;BME280;57706;56.326;43.882;2023-06-19T12:03:08;100457.41;;;43.64;7.12
70302;BME280;57706;56.326;43.882;2023-06-19T12:05:36;100459.09;;;42.15;7.70
70302;BME280;57706;56.326;43.882;2023-06-19T12:08:03;100456.03;;;40.78;8.43
70302;BME280;57706;56.326;43.882;2023-06-19T12:10:30;100457.56;;;37.30;10.35
70302;BME280;57706;56.326;43.882;2023-06-19T12:12:56;100454.34;;;34.16;12.86
70302;BME280;57706;56.326;43.882;2023-06-19T12:15:22;100455.53;;;35.80;12.10
70302;BME280;57706;56.326;43.882;2023-06-19T12:17:48;100451.66;;;36.23;11.98
70302;BME280;57706;56.326;43.882;2023-06-19T12:20:14;100450.91;;;35.20;12.29
70302;BME280;57706;56.326;43.882;2023-06-19T12:22:40;100444.28;;;38.11;10.44
70302;BME280;57706;56.326;43.882;2023-06-19T12:25:08;100439.78;;;39.87;9.58
70302;BME280;57706;56.326;43.882;2023-06-19T12:27:34;100441.50;;;42.76;8.14
70302;BME280;57706;56.326;43.882;2023-06-19T12:30:00;100440.38;;;43.51;7.68
70302;BME280;57706;56.326;43.882;2023-06-19T12:32:26;100434.28;;;45.00;7.16
70302;BME280;57706;56.326;43.882;2023-06-19T12:34:52;100424.47;;;41.56;8.95
70302;BME280;57706;56.326;43.882;2023-06-19T12:37:20;100423.50;;;37.97;10.68
70302;BME280;57706;56.326;43.882;2023-06-19T12:39:47;100434.28;;;39.87;9.94
70302;BME280;57706;56.326;43.882;2023-06-19T12:42:13;100425.00;;;40.35;9.31
70302;BME280;57706;56.326;43.882;2023-06-19T12:44:40;100420.00;;;39.42;9.90
70302;BME280;57706;56.326;43.882;2023-06-19T12:47:06;100419.16;;;37.68;11.02
70302;BME280;57706;56.326;43.882;2023-06-19T12:49:32;100422.03;;;35.40;12.64
70302;BME280;57706;56.326;43.882;2023-06-19T12:51:58;100417.59;;;33.96;14.03
70302;BME280;57706;56.326;43.882;2023-06-19T12:54:25;100410.09;;;32.77;15.10